»·PEaware :: N19947 KCMA-KSAN

N19947 :: KCMA-KSAN

FLIGHT INFORMATION

Flight Status: Arrived
Operator: Privately registered:
United States
More flights under this callsign
Pilot: Adam A. (5112)
Aircraft: CESSNA 172 SKYHAWK
(C172)
More flights by this aircraft type
Origin: KCMA Camarillo
United States
Destination: KSAN San Diego Intl-Lindbergh
United States
More flights between these airports :: More routes between these airports
Route: +VTU044 GINNA V326 VNY V186 HAILE V66 MZB
File this flight plan on PilotEdge
Remarks:
Altitude:
(Current/Filed)
9,000ft
Speed:
(Current/Filed)
120kts
Departed: 31-Oct-15 11:06 AM
Arrived: 31-Oct-15 12:44 PM
Distance/Time
Traveled:
519nm/1:38
Distance/Time
To Go:
Arrived

Flight Plot

Page will automatically refresh every two minutes.


Map Options




Map Legend


Flown Route
Filed Route
Departure Airport
Arrival Airport
Navaid (VOR, NDB)
Fix

Horizontal Profiles

Position Reports

Time Latitude Longitude Heading Altitude Ground
Speed
31-Oct-15 10:47 34.210408 -119.083316 89 80ft 0kts
31-Oct-15 10:48 34.210408 -119.083316 89 80ft 0kts
31-Oct-15 10:49 34.210408 -119.083316 89 80ft 0kts
31-Oct-15 10:50 34.210408 -119.083316 89 80ft 0kts
31-Oct-15 10:51 34.210408 -119.083316 89 80ft 0kts
31-Oct-15 10:52 34.210408 -119.083316 89 80ft 0kts
31-Oct-15 10:53 34.210408 -119.083316 89 80ft 0kts
31-Oct-15 10:54 34.210408 -119.083316 89 80ft 0kts
31-Oct-15 10:55 34.210408 -119.083316 89 80ft 0kts
31-Oct-15 10:56 34.210408 -119.083316 89 80ft 0kts
31-Oct-15 10:57 34.210408 -119.083316 89 80ft 0kts
31-Oct-15 10:58 34.210408 -119.083316 89 80ft 0kts
31-Oct-15 10:59 34.210524 -119.083230 338 80ft 0kts
31-Oct-15 11:00 34.212366 -119.083577 14 80ft 10kts
31-Oct-15 11:01 34.212629 -119.083565 277 80ft 0kts
31-Oct-15 11:02 34.212629 -119.083565 277 80ft 0kts
31-Oct-15 11:03 34.212972 -119.083734 359 80ft 9kts
31-Oct-15 11:04 34.213569 -119.097239 270 351ft 72kts
31-Oct-15 11:05 34.216795 -119.121354 286 1120ft 75kts
31-Oct-15 11:06 34.222212 -119.145642 286 1868ft 76kts
31-Oct-15 11:07 34.227118 -119.170393 286 2591ft 76kts
31-Oct-15 11:08 34.229386 -119.196126 237 3220ft 90kts
31-Oct-15 11:09 34.214858 -119.186687 80 3876ft 82kts
31-Oct-15 11:10 34.215478 -119.158627 83 4495ft 85kts
31-Oct-15 11:11 34.215192 -119.129500 83 5101ft 85kts
31-Oct-15 11:12 34.215047 -119.100591 83 5688ft 86kts
31-Oct-15 11:13 34.214859 -119.070859 83 6240ft 89kts
31-Oct-15 11:14 34.214661 -119.041029 83 6784ft 89kts
31-Oct-15 11:15 34.214379 -119.010726 81 7297ft 90kts
31-Oct-15 11:16 34.213837 -118.979792 84 7785ft 92kts
31-Oct-15 11:17 34.212840 -118.946432 85 8032ft 110kts
31-Oct-15 11:18 34.214208 -118.908646 77 8024ft 116kts
31-Oct-15 11:19 34.216609 -118.869590 81 8009ft 118kts
31-Oct-15 11:20 34.217901 -118.829417 82 8010ft 121kts
31-Oct-15 11:21 34.218820 -118.787982 83 8010ft 124kts
31-Oct-15 11:22 34.219613 -118.746586 82 7997ft 124kts
31-Oct-15 11:23 34.220356 -118.705838 82 7990ft 122kts
31-Oct-15 11:24 34.221084 -118.665162 82 7994ft 119kts
31-Oct-15 11:25 34.221786 -118.625227 82 7999ft 117kts
31-Oct-15 11:26 34.222453 -118.586613 82 8003ft 115kts
31-Oct-15 11:27 34.223133 -118.546540 82 7982ft 121kts
31-Oct-15 11:28 34.223804 -118.505689 82 7982ft 122kts
31-Oct-15 11:29 34.214340 -118.467044 138 7935ft 136kts
31-Oct-15 11:30 34.196010 -118.439414 110 8065ft 124kts
31-Oct-15 11:31 34.188061 -118.398884 94 7998ft 128kts
31-Oct-15 11:32 34.181999 -118.356869 95 7981ft 127kts
31-Oct-15 11:33 34.167556 -118.311293 100 7983ft 126kts
31-Oct-15 11:34 34.159328 -118.277549 102 7982ft 126kts
31-Oct-15 11:35 34.148493 -118.237094 103 7982ft 127kts
31-Oct-15 11:36 34.137190 -118.196893 103 7982ft 127kts
31-Oct-15 11:37 34.125599 -118.156589 104 7982ft 127kts
31-Oct-15 11:38 34.113980 -118.116638 104 7982ft 127kts
31-Oct-15 11:39 34.102259 -118.076566 104 7982ft 127kts
31-Oct-15 11:40 34.088539 -118.037203 112 7982ft 128kts
31-Oct-15 11:41 34.073376 -117.998343 110 7982ft 128kts
31-Oct-15 11:42 34.060205 -117.958557 103 7982ft 127kts
31-Oct-15 11:43 34.048284 -117.918324 105 7982ft 128kts
31-Oct-15 11:44 34.035929 -117.879273 106 7981ft 128kts
31-Oct-15 11:45 34.023226 -117.839547 107 8051ft 121kts
31-Oct-15 11:46 34.011433 -117.804585 105 8545ft 103kts
31-Oct-15 11:47 34.001446 -117.774627 104 8989ft 104kts
31-Oct-15 11:48 33.989157 -117.738205 106 8984ft 124kts
31-Oct-15 11:49 33.975810 -117.698958 106 8983ft 127kts
31-Oct-15 11:50 33.962313 -117.659238 106 8983ft 128kts
31-Oct-15 11:51 33.948360 -117.619542 107 8983ft 128kts
31-Oct-15 11:52 33.934921 -117.579603 106 8983ft 128kts
31-Oct-15 11:53 33.921892 -117.539649 105 8983ft 128kts
31-Oct-15 11:54 33.895087 -117.510396 142 8983ft 133kts
31-Oct-15 11:55 33.864742 -117.484584 143 8983ft 133kts
31-Oct-15 11:56 33.834495 -117.459187 143 8983ft 134kts
31-Oct-15 11:57 33.803843 -117.433547 143 8983ft 134kts
31-Oct-15 11:58 33.773179 -117.407938 143 8984ft 134kts
31-Oct-15 11:59 33.742539 -117.382375 143 8984ft 134kts
31-Oct-15 12:00 33.711859 -117.356802 143 8984ft 134kts
31-Oct-15 12:01 33.681120 -117.331193 143 8984ft 134kts
31-Oct-15 12:02 33.650470 -117.305698 143 8984ft 134kts
31-Oct-15 12:03 33.619673 -117.280098 143 8984ft 134kts
31-Oct-15 12:04 33.588961 -117.254590 143 8984ft 134kts
31-Oct-15 12:05 33.558434 -117.229257 143 8985ft 134kts
31-Oct-15 12:06 33.527794 -117.203853 143 8985ft 134kts
31-Oct-15 12:07 33.496853 -117.178222 143 8985ft 134kts
31-Oct-15 12:08 33.464949 -117.154763 150 8985ft 135kts
31-Oct-15 12:09 33.432385 -117.134224 150 9005ft 133kts
31-Oct-15 12:10 33.399445 -117.113455 150 9000ft 134kts
31-Oct-15 12:11 33.366445 -117.092647 150 9000ft 134kts
31-Oct-15 12:12 33.333516 -117.071884 150 9000ft 134kts
31-Oct-15 12:13 33.300621 -117.051141 150 9000ft 134kts
31-Oct-15 12:14 33.267554 -117.030289 150 9000ft 134kts
31-Oct-15 12:15 33.234636 -117.009530 150 9001ft 134kts
31-Oct-15 12:16 33.201602 -116.988697 150 9001ft 134kts
31-Oct-15 12:17 33.168562 -116.967858 150 9001ft 134kts
31-Oct-15 12:18 33.135832 -116.947215 150 9001ft 134kts
31-Oct-15 12:19 33.101815 -116.925617 150 8608ft 140kts
31-Oct-15 12:20 33.067510 -116.903588 150 8111ft 140kts
31-Oct-15 12:21 33.035142 -116.882591 151 7632ft 138kts
31-Oct-15 12:22 33.001490 -116.860578 151 7128ft 137kts
31-Oct-15 12:23 32.968832 -116.839143 151 7000ft 131kts
31-Oct-15 12:24 32.937064 -116.818312 151 7000ft 129kts
31-Oct-15 12:25 32.905566 -116.797660 151 7001ft 129kts
31-Oct-15 12:26 32.871626 -116.793201 191 7001ft 126kts
31-Oct-15 12:27 32.836370 -116.801920 196 6677ft 133kts
31-Oct-15 12:28 32.800280 -116.811606 196 6078ft 132kts
31-Oct-15 12:29 32.764509 -116.821329 196 5477ft 131kts
31-Oct-15 12:30 32.729062 -116.831106 196 4877ft 130kts
31-Oct-15 12:31 32.694649 -116.842097 223 4272ft 125kts
31-Oct-15 12:32 32.681007 -116.878361 252 3679ft 120kts
31-Oct-15 12:33 32.669592 -116.913779 252 3058ft 104kts
31-Oct-15 12:34 32.674318 -116.946060 288 3566ft 91kts
31-Oct-15 12:35 32.681191 -116.974182 288 3605ft 117kts
31-Oct-15 12:36 32.690751 -117.013311 287 2973ft 129kts
31-Oct-15 12:37 32.700546 -117.053564 287 2459ft 116kts
31-Oct-15 12:38 32.709039 -117.088490 287 2034ft 109kts
31-Oct-15 12:39 32.717453 -117.123216 287 1247ft 112kts
31-Oct-15 12:40 32.725672 -117.157332 286 525ft 93kts
31-Oct-15 12:41 32.731116 -117.179679 286 60ft 58kts
31-Oct-15 12:42 32.734042 -117.188002 29 20ft 0kts
31-Oct-15 12:43 32.733744 -117.185671 104 20ft 15kts
31-Oct-15 12:44 32.732642 -117.181153 104 20ft 16kts
31-Oct-15 12:45 32.732651 -117.176834 108 20ft 5kts
31-Oct-15 12:46 32.732407 -117.176685 195 20ft 0kts
31-Oct-15 12:47 32.732407 -117.176685 195 20ft 0kts
31-Oct-15 12:48 32.732407 -117.176685 195 20ft 0kts
31-Oct-15 12:49 32.732407 -117.176685 195 20ft 0kts
31-Oct-15 12:51 40.775661 -111.959378 357 4230ft 0kts
31-Oct-15 12:52 40.787271 -111.978169 357 4230ft 0kts
31-Oct-15 12:53 40.789220 -111.984408 222 4230ft 3kts
31-Oct-15 12:54 40.789082 -111.984962 287 4230ft 0kts
31-Oct-15 12:55 40.789082 -111.984962 287 4230ft 0kts
31-Oct-15 12:56 40.789082 -111.984962 287 4230ft 0kts

Navigation Log

Ident Type
Flight plan parsing failed, navigation log unavailable